createdAt,value
2023-04-11T00:00:19.583Z,6.70
2023-04-11T00:01:19.574Z,7.10
2023-04-11T00:02:19.645Z,6.60
2023-04-11T00:03:19.668Z,6.10
2023-04-11T00:04:19.622Z,8.60
2023-04-11T00:05:19.543Z,5.30
2023-04-11T00:06:19.541Z,8.20
2023-04-11T00:07:19.528Z,7.70
2023-04-11T00:08:19.520Z,5.20
2023-04-11T00:09:19.543Z,5.70
2023-04-11T00:10:19.509Z,6.20
2023-04-11T00:11:19.516Z,7.80
2023-04-11T00:12:19.490Z,4.80
2023-04-11T00:13:19.477Z,5.30
2023-04-11T00:14:19.498Z,7.10
2023-04-11T00:15:19.461Z,4.10
2023-04-11T00:16:19.502Z,6.20
2023-04-11T00:17:19.477Z,4.50
2023-04-11T00:18:19.452Z,4.80
2023-04-11T00:19:19.464Z,7.50
2023-04-11T00:20:19.429Z,7.90
2023-04-11T00:21:19.421Z,6.60
2023-04-11T00:22:19.395Z,5.20
2023-04-11T00:23:19.395Z,5.60
2023-04-11T00:24:19.417Z,5.10
2023-04-11T00:25:19.388Z,5.30
2023-04-11T00:26:19.377Z,5.90
2023-04-11T00:27:21.817Z,6.60
2023-04-11T00:28:20.354Z,6.70
2023-04-11T00:29:19.378Z,5.40
2023-04-11T00:30:19.343Z,4.80
2023-04-11T00:31:19.365Z,6.70
2023-04-11T00:32:19.323Z,7.40
2023-04-11T00:33:19.321Z,5.80
2023-04-11T00:34:19.332Z,5.80
2023-04-11T00:35:19.316Z,7.20
2023-04-11T00:36:19.372Z,7.10
2023-04-11T00:37:19.286Z,5.40
2023-04-11T00:38:19.285Z,4.30
2023-04-11T00:39:19.302Z,4.50
2023-04-11T00:40:19.273Z,4.80
2023-04-11T00:41:19.258Z,5.00
2023-04-11T00:42:19.248Z,3.80
2023-04-11T00:43:19.244Z,5.70
2023-04-11T00:44:19.260Z,5.50
2023-04-11T00:45:19.227Z,6.00
2023-04-11T00:46:19.246Z,7.30
2023-04-11T00:47:19.263Z,5.60
2023-04-11T00:48:19.206Z,8.20
2023-04-11T00:49:19.228Z,7.90
2023-04-11T00:50:19.184Z,7.00
2023-04-11T00:51:19.180Z,6.70
2023-04-11T00:52:19.180Z,5.60
2023-04-11T00:53:19.178Z,5.00
2023-04-11T00:54:19.160Z,6.10
2023-04-11T00:55:19.179Z,6.80
2023-04-11T00:56:19.149Z,7.10
2023-04-11T00:57:19.137Z,6.60
2023-04-11T00:58:19.128Z,7.80
2023-04-11T00:59:19.115Z,6.80
2023-04-11T01:00:19.149Z,7.50
2023-04-11T01:01:19.153Z,5.90
2023-04-11T01:02:19.315Z,7.30
2023-04-11T01:03:19.338Z,7.20
2023-04-11T01:04:19.110Z,7.20
2023-04-11T01:05:19.128Z,7.30
2023-04-11T01:06:19.077Z,7.60
2023-04-11T01:07:19.059Z,5.90
2023-04-11T01:08:19.044Z,6.30
2023-04-11T01:09:19.032Z,5.90
2023-04-11T01:10:19.058Z,8.80
2023-04-11T01:11:19.022Z,6.70
2023-04-11T01:12:19.014Z,4.60
2023-04-11T01:13:19.011Z,5.20
2023-04-11T01:14:19.025Z,5.20
2023-04-11T01:15:19.024Z,6.20
2023-04-11T01:16:19.006Z,4.80
2023-04-11T01:17:18.981Z,6.10
2023-04-11T01:18:18.969Z,4.30
2023-04-11T01:19:18.974Z,6.20
2023-04-11T01:20:18.985Z,5.70
2023-04-11T01:21:18.953Z,6.30
2023-04-11T01:22:18.954Z,5.60
2023-04-11T01:23:18.937Z,5.50
2023-04-11T01:24:18.919Z,7.20
2023-04-11T01:25:18.961Z,6.50
2023-04-11T01:26:18.911Z,5.80
2023-04-11T01:27:18.902Z,4.90
2023-04-11T01:28:18.896Z,6.50
2023-04-11T01:29:18.893Z,6.00
2023-04-11T01:30:18.904Z,7.60
2023-04-11T01:31:18.950Z,7.10
2023-04-11T01:32:18.863Z,6.10
2023-04-11T01:33:18.857Z,7.50
2023-04-11T01:34:18.844Z,6.10
2023-04-11T01:35:18.869Z,6.90
2023-04-11T01:36:18.833Z,6.00
2023-04-11T01:37:18.830Z,9.00
2023-04-11T01:38:18.825Z,8.60
2023-04-11T01:39:18.816Z,8.20
2023-04-11T01:40:18.847Z,8.10
2023-04-11T01:41:18.787Z,6.70
2023-04-11T01:42:18.796Z,7.50
2023-04-11T01:43:18.778Z,5.90
2023-04-11T01:44:18.771Z,7.10
2023-04-11T01:45:18.789Z,8.50
2023-04-11T01:46:18.765Z,7.60
2023-04-11T01:47:18.756Z,6.40
2023-04-11T01:48:18.807Z,7.90
2023-04-11T01:49:18.743Z,7.10
2023-04-11T01:50:18.762Z,6.80
2023-04-11T01:51:18.722Z,6.60
2023-04-11T01:52:18.709Z,9.20
2023-04-11T01:53:18.712Z,6.40
2023-04-11T01:54:18.697Z,6.70
2023-04-11T01:55:18.708Z,5.10
2023-04-11T01:56:18.712Z,7.20
2023-04-11T01:57:18.668Z,6.20
2023-04-11T01:58:18.666Z,4.40
2023-04-11T01:59:18.655Z,4.60
2023-04-11T02:00:18.686Z,4.40
2023-04-11T02:01:18.684Z,2.40
2023-04-11T02:02:18.784Z,4.10
2023-04-11T02:03:18.814Z,3.30
2023-04-11T02:04:18.834Z,3.10
2023-04-11T02:05:18.635Z,3.00
2023-04-11T02:06:18.613Z,3.80
2023-04-11T02:07:18.609Z,2.20
2023-04-11T02:08:18.598Z,2.00
2023-04-11T02:09:18.594Z,2.20
2023-04-11T02:10:18.612Z,3.30
2023-04-11T02:11:18.573Z,3.70
2023-04-11T02:12:18.566Z,3.10
2023-04-11T02:13:18.553Z,2.90
2023-04-11T02:14:18.553Z,3.70
2023-04-11T02:15:18.570Z,3.80
2023-04-11T02:16:18.633Z,2.10
2023-04-11T02:17:18.565Z,3.30
2023-04-11T02:18:18.516Z,1.40
2023-04-11T02:19:18.510Z,2.30
2023-04-11T02:20:18.540Z,2.80
2023-04-11T02:21:18.490Z,2.30
2023-04-11T02:22:18.494Z,4.20
2023-04-11T02:23:18.481Z,2.10
2023-04-11T02:24:18.471Z,2.10
2023-04-11T02:25:18.490Z,4.10
2023-04-11T02:26:18.454Z,1.70
2023-04-11T02:27:18.457Z,1.00
2023-04-11T02:28:18.441Z,3.30
2023-04-11T02:29:18.436Z,2.30
2023-04-11T02:30:18.725Z,2.50
2023-04-11T02:31:18.463Z,1.50
2023-04-11T02:32:18.428Z,1.40
2023-04-11T02:33:18.403Z,1.10
2023-04-11T02:34:18.391Z,2.40
2023-04-11T02:35:18.420Z,2.90
2023-04-11T02:36:18.376Z,1.50
2023-04-11T02:37:19.373Z,1.10
2023-04-11T02:38:18.364Z,2.00
2023-04-11T02:39:18.358Z,1.40
2023-04-11T02:40:18.385Z,1.60
2023-04-11T02:41:18.346Z,1.20
2023-04-11T02:42:18.332Z,2.30
2023-04-11T02:43:18.323Z,2.10
2023-04-11T02:44:18.312Z,2.10
2023-04-11T02:45:18.331Z,1.60
2023-04-11T02:46:18.342Z,3.90
2023-04-11T02:47:18.310Z,1.90
2023-04-11T02:48:18.291Z,1.00
2023-04-11T02:49:18.280Z,2.50
2023-04-11T02:50:18.302Z,4.30
2023-04-11T02:51:18.269Z,1.30
2023-04-11T02:52:18.254Z,3.80
2023-04-11T02:53:18.244Z,2.90
2023-04-11T02:54:18.244Z,3.10
2023-04-11T02:55:18.247Z,5.30
2023-04-11T02:56:18.227Z,2.60
2023-04-11T02:57:18.227Z,3.90
2023-04-11T02:58:18.324Z,3.20
2023-04-11T02:59:18.193Z,2.20
2023-04-11T03:00:18.211Z,3.00
2023-04-11T03:01:18.252Z,4.10
2023-04-11T03:02:18.339Z,4.00
2023-04-11T03:03:18.233Z,2.80
2023-04-11T03:04:18.253Z,4.70
2023-04-11T03:05:18.197Z,2.40
2023-04-11T03:06:18.138Z,3.10
2023-04-11T03:07:18.129Z,5.10
2023-04-11T03:08:18.128Z,1.80
2023-04-11T03:09:18.121Z,2.20
2023-04-11T03:10:18.146Z,1.70
2023-04-11T03:11:19.108Z,3.10
2023-04-11T03:12:18.096Z,3.00
2023-04-11T03:13:18.095Z,4.20
2023-04-11T03:14:18.077Z,1.60
2023-04-11T03:15:18.103Z,3.00
2023-04-11T03:16:18.076Z,2.40
2023-04-11T03:17:18.051Z,4.70
2023-04-11T03:18:19.052Z,3.40
2023-04-11T03:19:18.037Z,1.70
2023-04-11T03:20:18.061Z,2.70
2023-04-11T03:21:18.027Z,3.30
2023-04-11T03:22:18.021Z,2.60
2023-04-11T03:23:18.013Z,2.90
2023-04-11T03:24:18.014Z,2.40
2023-04-11T03:25:18.039Z,3.50
2023-04-11T03:26:17.992Z,2.70
2023-04-11T03:27:17.985Z,1.50
2023-04-11T03:28:17.977Z,2.70
2023-04-11T03:29:17.963Z,2.10
2023-04-11T03:30:17.982Z,2.40
2023-04-11T03:31:17.991Z,1.70
2023-04-11T03:32:17.948Z,4.00
2023-04-11T03:33:17.937Z,1.60
2023-04-11T03:34:17.945Z,1.60
2023-04-11T03:35:17.922Z,2.80
2023-04-11T03:36:17.979Z,2.00
2023-04-11T03:37:17.907Z,2.00
2023-04-11T03:38:17.901Z,2.10
2023-04-11T03:39:17.898Z,1.70
2023-04-11T03:40:17.886Z,2.50
2023-04-11T03:41:17.897Z,5.10
2023-04-11T03:42:17.867Z,3.10
2023-04-11T03:43:17.863Z,3.30
2023-04-11T03:44:17.869Z,1.80
2023-04-11T03:45:17.864Z,2.60
2023-04-11T03:46:17.880Z,2.70
2023-04-11T03:47:17.830Z,2.80
2023-04-11T03:48:19.554Z,2.30
2023-04-11T03:49:17.815Z,4.00
2023-04-11T03:50:17.808Z,1.10
2023-04-11T03:51:17.849Z,1.00
2023-04-11T03:52:17.791Z,1.70
2023-04-11T03:53:17.795Z,0.80
2023-04-11T03:54:17.781Z,1.70
2023-04-11T03:55:17.799Z,1.80
2023-04-11T03:56:17.797Z,1.80
2023-04-11T03:57:17.756Z,1.40
2023-04-11T03:58:17.747Z,2.50
2023-04-11T03:59:17.748Z,3.10
2023-04-11T04:00:17.734Z,2.40
2023-04-11T04:01:17.755Z,3.60
2023-04-11T04:02:17.775Z,2.90
2023-04-11T04:03:17.898Z,2.30
2023-04-11T04:04:17.769Z,3.60
2023-04-11T04:05:17.690Z,4.30
2023-04-11T04:06:17.711Z,1.10
2023-04-11T04:07:17.676Z,3.20
2023-04-11T04:08:17.664Z,2.90
2023-04-11T04:09:17.663Z,3.40
2023-04-11T04:10:17.654Z,3.00
2023-04-11T04:11:17.679Z,1.50
2023-04-11T04:12:17.640Z,2.60
2023-04-11T04:13:17.639Z,3.10
2023-04-11T04:14:17.670Z,2.50
2023-04-11T04:15:17.620Z,3.50
2023-04-11T04:16:17.722Z,2.30
2023-04-11T04:17:17.607Z,3.00
2023-04-11T04:18:17.601Z,2.50
2023-04-11T04:19:17.596Z,3.40
2023-04-11T04:20:17.579Z,3.20
2023-04-11T04:21:17.598Z,2.20
2023-04-11T04:22:17.656Z,2.30
2023-04-11T04:23:17.567Z,2.70
2023-04-11T04:24:17.549Z,2.90
2023-04-11T04:25:17.543Z,1.90
2023-04-11T04:26:17.568Z,2.50
2023-04-11T04:27:17.526Z,3.90
2023-04-11T04:28:17.525Z,3.60
2023-04-11T04:29:17.520Z,1.60
2023-04-11T04:30:17.504Z,2.50
2023-04-11T04:31:17.545Z,2.50
2023-04-11T04:32:17.493Z,2.10
2023-04-11T04:33:17.482Z,3.60
2023-04-11T04:34:17.471Z,2.70
2023-04-11T04:35:17.465Z,4.70
2023-04-11T04:36:17.479Z,4.80
2023-04-11T04:37:17.445Z,3.90
2023-04-11T04:38:17.518Z,4.10
2023-04-11T04:39:17.444Z,3.40
2023-04-11T04:40:17.418Z,6.20
2023-04-11T04:41:17.442Z,3.00
2023-04-11T04:42:17.408Z,3.10
2023-04-11T04:43:17.404Z,3.00
2023-04-11T04:44:17.468Z,2.50
2023-04-11T04:45:17.393Z,3.60
2023-04-11T04:46:17.447Z,2.90
2023-04-11T04:47:17.371Z,2.50
2023-04-11T04:48:17.392Z,10.80
2023-04-11T04:49:17.352Z,1.80
2023-04-11T04:50:17.350Z,1.40
2023-04-11T04:51:17.431Z,2.50
2023-04-11T04:52:17.332Z,3.20
2023-04-11T04:53:17.324Z,1.40
2023-04-11T04:54:17.308Z,3.90
2023-04-11T04:55:17.303Z,2.10
2023-04-11T04:56:17.317Z,3.10
2023-04-11T04:57:18.296Z,3.30
2023-04-11T04:58:17.291Z,5.60
2023-04-11T04:59:17.270Z,6.00
2023-04-11T05:00:17.270Z,2.80
2023-04-11T05:01:17.364Z,2.60
2023-04-11T05:02:17.392Z,4.30
2023-04-11T05:03:17.343Z,2.60
2023-04-11T05:04:17.301Z,3.70
2023-04-11T05:05:17.245Z,2.30
2023-04-11T05:06:18.798Z,3.30
2023-04-11T05:07:17.217Z,4.50
2023-04-11T05:08:17.218Z,2.40
2023-04-11T05:09:17.206Z,1.90
2023-04-11T05:10:17.188Z,4.00
2023-04-11T05:11:17.232Z,3.60
2023-04-11T05:12:17.182Z,3.10
2023-04-11T05:13:17.162Z,3.00
2023-04-11T05:14:17.162Z,2.20
2023-04-11T05:15:17.153Z,2.60
2023-04-11T05:16:17.180Z,2.70
2023-04-11T05:17:17.130Z,4.40
2023-04-11T05:18:17.137Z,2.90
2023-04-11T05:19:17.120Z,4.00
2023-04-11T05:20:17.122Z,3.80
2023-04-11T05:21:17.133Z,4.90
2023-04-11T05:22:17.095Z,3.30
2023-04-11T05:23:17.091Z,3.20
2023-04-11T05:24:17.085Z,4.50
2023-04-11T05:25:17.077Z,2.50
2023-04-11T05:26:17.092Z,3.90
2023-04-11T05:27:17.057Z,5.00
2023-04-11T05:28:17.064Z,5.80
2023-04-11T05:29:17.042Z,2.40
2023-04-11T05:30:17.053Z,3.00
2023-04-11T05:31:17.139Z,3.20
2023-04-11T05:32:17.020Z,2.60
2023-04-11T05:33:17.010Z,3.40
2023-04-11T05:34:17.002Z,3.00
2023-04-11T05:35:16.998Z,5.10
2023-04-11T05:36:17.037Z,2.50
2023-04-11T05:37:16.985Z,3.80
2023-04-11T05:38:16.973Z,3.20
2023-04-11T05:39:16.966Z,5.60
2023-04-11T05:40:16.965Z,3.40
2023-04-11T05:41:16.986Z,3.60
2023-04-11T05:42:16.945Z,3.80
2023-04-11T05:43:16.933Z,4.70
2023-04-11T05:44:16.928Z,6.70
2023-04-11T05:45:16.922Z,3.80
2023-04-11T05:46:16.986Z,5.10
2023-04-11T05:47:16.905Z,6.20
2023-04-11T05:48:16.898Z,6.00
2023-04-11T05:49:16.908Z,5.00
2023-04-11T05:50:16.886Z,6.20
2023-04-11T05:51:16.905Z,4.20
2023-04-11T05:52:16.885Z,4.30
2023-04-11T05:53:16.873Z,4.50
2023-04-11T05:54:16.859Z,5.20
2023-04-11T05:55:16.850Z,2.40
2023-04-11T05:56:16.870Z,3.30
2023-04-11T05:57:16.831Z,4.10
2023-04-11T05:58:16.819Z,2.50
2023-04-11T05:59:18.100Z,5.50
2023-04-11T06:00:16.825Z,4.20
2023-04-11T06:01:16.821Z,3.50
2023-04-11T06:02:16.925Z,4.80
2023-04-11T06:03:16.903Z,3.60
2023-04-11T06:04:17.012Z,4.90
2023-04-11T06:05:16.817Z,4.70
2023-04-11T06:06:16.880Z,4.90
2023-04-11T06:07:16.750Z,4.80
2023-04-11T06:08:16.738Z,5.00
2023-04-11T06:09:16.732Z,6.40
2023-04-11T06:10:16.722Z,4.30
2023-04-11T06:11:16.741Z,4.00
2023-04-11T06:12:16.708Z,2.50
2023-04-11T06:13:16.699Z,4.40
2023-04-11T06:14:16.718Z,4.20
2023-04-11T06:15:16.692Z,3.00
2023-04-11T06:16:16.744Z,3.30
2023-04-11T06:17:16.676Z,3.20
2023-04-11T06:18:16.657Z,3.50
2023-04-11T06:19:16.699Z,4.20
2023-04-11T06:20:16.663Z,2.50
2023-04-11T06:21:16.663Z,3.30
2023-04-11T06:22:16.633Z,3.10
2023-04-11T06:23:16.626Z,4.30
2023-04-11T06:24:16.612Z,5.80
2023-04-11T06:25:16.609Z,3.20
2023-04-11T06:26:16.600Z,3.30
2023-04-11T06:27:16.637Z,3.80
2023-04-11T06:28:16.597Z,3.00
2023-04-11T06:29:16.573Z,3.40
2023-04-11T06:30:16.566Z,2.60
2023-04-11T06:31:16.600Z,3.30
2023-04-11T06:32:16.740Z,3.50
2023-04-11T06:33:16.552Z,3.10
2023-04-11T06:34:16.555Z,2.90
2023-04-11T06:35:16.540Z,3.50
2023-04-11T06:36:16.535Z,5.00
2023-04-11T06:37:16.548Z,3.50
2023-04-11T06:38:16.517Z,4.30
2023-04-11T06:39:16.532Z,6.10
2023-04-11T06:40:16.498Z,4.00
2023-04-11T06:41:16.492Z,3.60
2023-04-11T06:42:16.485Z,2.90
2023-04-11T06:43:16.489Z,4.00
2023-04-11T06:44:16.526Z,3.50
2023-04-11T06:45:16.480Z,6.30
2023-04-11T06:46:16.480Z,5.30
2023-04-11T06:47:16.461Z,5.90
2023-04-11T06:48:16.446Z,4.50
2023-04-11T06:49:16.456Z,5.40
2023-04-11T06:50:16.433Z,5.70
2023-04-11T06:51:16.431Z,5.60
2023-04-11T06:52:16.413Z,5.10
2023-04-11T06:53:16.407Z,5.20
2023-04-11T06:54:16.424Z,6.80
2023-04-11T06:55:16.395Z,5.80
2023-04-11T06:56:16.380Z,5.90
2023-04-11T06:57:16.374Z,6.10
2023-04-11T06:58:16.365Z,5.60
2023-04-11T06:59:16.394Z,5.50
2023-04-11T07:00:16.355Z,6.30
2023-04-11T07:01:16.381Z,6.40
2023-04-11T07:02:16.425Z,8.20
2023-04-11T07:03:16.438Z,5.80
2023-04-11T07:04:16.487Z,7.00
2023-04-11T07:05:16.318Z,7.80
2023-04-11T07:06:16.378Z,6.40
2023-04-11T07:07:16.311Z,6.50
2023-04-11T07:08:16.296Z,9.10
2023-04-11T07:09:16.286Z,6.30
2023-04-11T07:10:16.288Z,5.60
2023-04-11T07:11:16.690Z,4.90
2023-04-11T07:12:16.265Z,6.10
2023-04-11T07:13:16.260Z,7.60
2023-04-11T07:14:16.256Z,8.60
2023-04-11T07:15:16.244Z,5.70
2023-04-11T07:16:16.354Z,5.10
2023-04-11T07:17:16.228Z,5.50
2023-04-11T07:18:16.216Z,7.60
2023-04-11T07:19:16.211Z,7.90
2023-04-11T07:20:16.201Z,9.10
2023-04-11T07:21:16.227Z,6.50
2023-04-11T07:22:16.195Z,8.30
2023-04-11T07:23:16.178Z,6.00
2023-04-11T07:24:16.176Z,10.50
2023-04-11T07:25:16.166Z,7.40
2023-04-11T07:26:16.164Z,9.10
2023-04-11T07:27:16.177Z,8.80
2023-04-11T07:28:16.152Z,7.60
2023-04-11T07:29:16.134Z,7.20
2023-04-11T07:30:16.127Z,10.50
2023-04-11T07:31:16.201Z,8.00
2023-04-11T07:32:16.111Z,6.60
2023-04-11T07:33:16.104Z,7.50
2023-04-11T07:34:16.099Z,6.00
2023-04-11T07:35:16.089Z,7.70
2023-04-11T07:36:16.153Z,11.70
2023-04-11T07:37:16.103Z,7.00
2023-04-11T07:38:16.071Z,10.00
2023-04-11T07:39:16.068Z,8.70
2023-04-11T07:40:16.059Z,8.00
2023-04-11T07:41:16.044Z,7.00
2023-04-11T07:42:16.060Z,8.70
2023-04-11T07:43:16.032Z,10.20
2023-04-11T07:44:16.026Z,9.10
2023-04-11T07:45:16.036Z,7.20
2023-04-11T07:46:16.037Z,8.70
2023-04-11T07:47:16.023Z,5.70
2023-04-11T07:48:15.995Z,9.80
2023-04-11T07:49:15.988Z,8.40
2023-04-11T07:50:15.990Z,10.60
2023-04-11T07:51:15.967Z,10.30
2023-04-11T07:52:15.980Z,11.40
2023-04-11T07:53:15.947Z,8.90
2023-04-11T07:54:15.947Z,7.30
2023-04-11T07:55:15.935Z,8.80
2023-04-11T07:56:15.932Z,7.00
2023-04-11T07:57:15.973Z,7.00
2023-04-11T07:58:15.904Z,6.20
2023-04-11T07:59:16.054Z,4.80
2023-04-11T08:00:15.893Z,4.60
2023-04-11T08:01:15.884Z,6.90
2023-04-11T08:02:16.001Z,4.30
2023-04-11T08:03:15.991Z,7.20
2023-04-11T08:04:15.955Z,6.00
2023-04-11T08:05:15.864Z,4.50
2023-04-11T08:06:15.839Z,5.90
2023-04-11T08:07:15.859Z,6.50
2023-04-11T08:08:15.837Z,5.70
2023-04-11T08:09:15.816Z,6.40
2023-04-11T08:10:15.807Z,5.80
2023-04-11T08:11:15.803Z,6.60
2023-04-11T08:12:15.818Z,5.10
2023-04-11T08:13:15.789Z,5.40
2023-04-11T08:14:15.772Z,3.40
2023-04-11T08:15:15.765Z,3.90
2023-04-11T08:16:15.826Z,3.20
2023-04-11T08:17:27.076Z,3.30
2023-04-11T08:18:17.795Z,5.30
2023-04-11T08:19:15.755Z,6.50
2023-04-11T08:20:15.737Z,3.30
2023-04-11T08:21:15.734Z,5.20
2023-04-11T08:22:15.922Z,5.90
2023-04-11T08:23:15.720Z,12.00
2023-04-11T08:24:15.705Z,6.80
2023-04-11T08:25:15.706Z,5.80
2023-04-11T08:26:15.684Z,4.00
2023-04-11T08:27:15.704Z,4.50
2023-04-11T08:28:15.667Z,4.20
2023-04-11T08:29:15.672Z,3.80
2023-04-11T08:30:15.657Z,3.20
2023-04-11T08:31:15.717Z,4.70
2023-04-11T08:32:15.666Z,5.60
2023-04-11T08:33:15.633Z,3.40
2023-04-11T08:34:15.629Z,3.40
2023-04-11T08:35:15.705Z,4.30
2023-04-11T08:36:15.651Z,3.70
2023-04-11T08:37:15.657Z,3.50
2023-04-11T08:38:15.599Z,2.90
2023-04-11T08:39:15.596Z,3.30
2023-04-11T08:40:15.577Z,4.30
2023-04-11T08:41:15.579Z,4.20
2023-04-11T08:42:15.588Z,4.10
2023-04-11T08:43:15.560Z,3.80
2023-04-11T08:44:15.550Z,2.20
2023-04-11T08:45:15.549Z,2.90
2023-04-11T08:46:15.558Z,3.80
2023-04-11T08:47:15.550Z,4.20
2023-04-11T08:48:15.519Z,4.00
2023-04-11T08:49:15.494Z,4.20
2023-04-11T08:50:16.690Z,4.70
2023-04-11T08:51:15.490Z,5.70
2023-04-11T08:52:15.507Z,2.30
2023-04-11T08:53:15.482Z,4.00
2023-04-11T08:54:15.474Z,3.00
2023-04-11T08:55:15.464Z,5.50
2023-04-11T08:56:15.450Z,4.60
2023-04-11T08:57:15.466Z,4.10
2023-04-11T08:58:15.454Z,3.60
2023-04-11T08:59:15.427Z,5.10
2023-04-11T09:00:15.453Z,3.40
2023-04-11T09:01:15.424Z,3.00
2023-04-11T09:02:15.545Z,3.50
2023-04-11T09:03:15.491Z,4.60
2023-04-11T09:04:15.408Z,3.50
2023-04-11T09:05:15.378Z,5.40
2023-04-11T09:06:15.376Z,3.20
2023-04-11T09:07:15.390Z,3.30
2023-04-11T09:08:15.359Z,2.90
2023-04-11T09:09:15.350Z,4.00
2023-04-11T09:10:15.348Z,5.30
2023-04-11T09:11:15.331Z,3.90
2023-04-11T09:12:15.353Z,3.30
2023-04-11T09:13:15.320Z,7.00
2023-04-11T09:14:15.319Z,5.20
2023-04-11T09:15:15.312Z,6.40
2023-04-11T09:16:15.472Z,3.10
2023-04-11T09:17:15.316Z,3.30
2023-04-11T09:18:15.290Z,4.70
2023-04-11T09:19:15.283Z,3.20
2023-04-11T09:20:15.270Z,4.10
2023-04-11T09:21:15.286Z,3.70
2023-04-11T09:22:15.278Z,3.30
2023-04-11T09:23:15.248Z,3.20
2023-04-11T09:24:15.241Z,3.70
2023-04-11T09:25:15.238Z,3.60
2023-04-11T09:26:15.223Z,4.40
2023-04-11T09:27:15.244Z,4.20
2023-04-11T09:28:15.209Z,3.60
2023-04-11T09:29:15.202Z,5.60
2023-04-11T09:30:15.195Z,3.30
2023-04-11T09:31:15.223Z,2.10
2023-04-11T09:32:15.210Z,5.40
2023-04-11T09:33:15.170Z,2.20
2023-04-11T09:34:15.157Z,3.30
2023-04-11T09:35:15.168Z,4.40
2023-04-11T09:36:15.145Z,4.80
2023-04-11T09:37:15.183Z,4.60
2023-04-11T09:38:15.131Z,6.50
2023-04-11T09:39:15.121Z,2.50
2023-04-11T09:40:15.125Z,1.90
2023-04-11T09:41:15.109Z,3.30
2023-04-11T09:42:15.102Z,4.10
2023-04-11T09:43:15.113Z,2.50
2023-04-11T09:44:15.099Z,2.70
2023-04-11T09:45:16.078Z,2.70
2023-04-11T09:46:15.133Z,3.00
2023-04-11T09:47:15.079Z,3.30
2023-04-11T09:48:15.092Z,5.90
2023-04-11T09:49:15.048Z,5.60
2023-04-11T09:50:15.037Z,2.90
2023-04-11T09:51:27.650Z,4.80
2023-04-11T09:52:17.026Z,3.80
2023-04-11T09:53:15.046Z,4.40
2023-04-11T09:54:15.011Z,3.10
2023-04-11T09:55:15.044Z,4.10
2023-04-11T09:56:14.994Z,2.80
2023-04-11T09:57:14.997Z,2.80
2023-04-11T09:58:14.998Z,3.60
2023-04-11T09:59:14.975Z,4.50
2023-04-11T10:00:14.959Z,3.20
2023-04-11T10:01:14.950Z,3.00
2023-04-11T10:02:14.978Z,3.10
2023-04-11T10:03:15.067Z,4.70
2023-04-11T10:04:14.969Z,5.60
2023-04-11T10:05:14.912Z,3.30
2023-04-11T10:06:14.937Z,2.70
2023-04-11T10:07:14.912Z,3.80
2023-04-11T10:08:14.949Z,4.70
2023-04-11T10:09:14.897Z,4.60
2023-04-11T10:10:14.875Z,4.60
2023-04-11T10:11:14.870Z,3.90
2023-04-11T10:12:14.863Z,4.30
2023-04-11T10:13:14.881Z,5.40
2023-04-11T10:14:14.845Z,5.90
2023-04-11T10:15:14.853Z,4.20
2023-04-11T10:16:14.965Z,5.10
2023-04-11T10:17:16.329Z,4.40
2023-04-11T10:18:14.847Z,5.10
2023-04-11T10:19:14.817Z,4.30
2023-04-11T10:20:14.797Z,4.10
2023-04-11T10:21:14.798Z,3.10
2023-04-11T10:22:14.781Z,5.10
2023-04-11T10:23:14.801Z,3.30
2023-04-11T10:24:17.144Z,4.70
2023-04-11T10:25:15.756Z,4.60
2023-04-11T10:26:14.750Z,3.30
2023-04-11T10:27:14.753Z,3.40
2023-04-11T10:28:14.763Z,4.70
2023-04-11T10:29:14.729Z,3.70
2023-04-11T10:30:14.724Z,4.20
2023-04-11T10:31:14.776Z,3.90
2023-04-11T10:32:14.706Z,2.60
2023-04-11T10:33:15.572Z,4.00
2023-04-11T10:34:14.697Z,4.50
2023-04-11T10:35:14.683Z,5.30
2023-04-11T10:36:14.681Z,5.00
2023-04-11T10:37:14.670Z,3.00
2023-04-11T10:38:14.696Z,3.00
2023-04-11T10:39:14.657Z,2.90
2023-04-11T10:40:14.656Z,4.60
2023-04-11T10:41:14.658Z,4.40
2023-04-11T10:42:14.635Z,4.10
2023-04-11T10:43:14.655Z,5.00
2023-04-11T10:44:14.619Z,5.80
2023-04-11T10:45:14.612Z,3.80
2023-04-11T10:46:14.636Z,3.70
2023-04-11T10:47:15.642Z,5.50
2023-04-11T10:48:14.612Z,6.90
2023-04-11T10:49:14.588Z,6.40
2023-04-11T10:50:14.572Z,4.50
2023-04-11T10:51:14.562Z,4.20
2023-04-11T10:52:14.559Z,4.60
2023-04-11T10:53:14.554Z,3.70
2023-04-11T10:54:14.591Z,6.20
2023-04-11T10:55:14.535Z,5.10
2023-04-11T10:56:15.561Z,5.80
2023-04-11T10:57:14.564Z,4.50
2023-04-11T10:58:14.505Z,5.40
2023-04-11T10:59:14.536Z,6.20
2023-04-11T11:00:14.502Z,3.50
2023-04-11T11:01:25.704Z,3.10
2023-04-11T11:02:16.544Z,2.80
2023-04-11T11:03:14.679Z,6.20
2023-04-11T11:04:14.731Z,4.70
2023-04-11T11:05:14.451Z,4.70
2023-04-11T11:06:14.454Z,4.30
2023-04-11T11:07:14.449Z,5.20
2023-04-11T11:08:14.437Z,2.60
2023-04-11T11:09:14.449Z,3.30
2023-04-11T11:10:14.414Z,3.70
2023-04-11T11:11:14.409Z,4.00
2023-04-11T11:12:14.397Z,4.50
2023-04-11T11:13:14.388Z,5.30
2023-04-11T11:14:14.406Z,6.10
2023-04-11T11:15:14.372Z,5.90
2023-04-11T11:16:14.380Z,5.60
2023-04-11T11:17:14.358Z,3.30
2023-04-11T11:18:14.352Z,3.10
2023-04-11T11:19:14.366Z,4.20
2023-04-11T11:20:14.336Z,4.90
2023-04-11T11:21:20.582Z,4.80
2023-04-11T11:22:15.354Z,6.40
2023-04-11T11:23:14.319Z,4.90
2023-04-11T11:24:14.332Z,3.80
2023-04-11T11:25:14.303Z,3.90
2023-04-11T11:26:14.295Z,5.90
2023-04-11T11:27:14.285Z,3.50
2023-04-11T11:28:14.272Z,5.10
2023-04-11T11:29:14.287Z,4.00
2023-04-11T11:30:14.259Z,4.30
2023-04-11T11:31:14.246Z,4.10
2023-04-11T11:32:14.245Z,3.40
2023-04-11T11:33:14.240Z,3.10
2023-04-11T11:34:23.737Z,5.70
2023-04-11T11:35:16.239Z,2.60
2023-04-11T11:36:14.209Z,4.10
2023-04-11T11:37:14.194Z,4.70
2023-04-11T11:38:14.189Z,3.40
2023-04-11T11:39:14.222Z,3.80
2023-04-11T11:40:14.212Z,2.50
2023-04-11T11:41:14.173Z,4.80
2023-04-11T11:42:14.156Z,2.90
2023-04-11T11:43:14.164Z,3.20
2023-04-11T11:44:14.188Z,4.80
2023-04-11T11:45:14.203Z,4.40
2023-04-11T11:46:14.309Z,3.80
2023-04-11T11:47:14.123Z,4.20
2023-04-11T11:48:14.109Z,5.20
2023-04-11T11:49:14.143Z,3.90
2023-04-11T11:50:14.102Z,7.20
2023-04-11T11:51:14.100Z,5.40
2023-04-11T11:52:14.161Z,6.60
2023-04-11T11:53:14.155Z,5.10
2023-04-11T11:54:14.105Z,4.80
2023-04-11T11:55:14.116Z,5.10
2023-04-11T11:56:14.163Z,4.30
2023-04-11T11:57:14.047Z,4.90
2023-04-11T11:58:14.050Z,2.90
2023-04-11T11:59:14.113Z,5.80
2023-04-11T12:00:14.054Z,4.60
2023-04-11T12:02:14.099Z,6.30
2023-04-11T12:03:14.150Z,4.10
2023-04-11T12:04:14.170Z,2.70
2023-04-11T12:05:14.078Z,6.50
2023-04-11T12:06:13.987Z,4.20
2023-04-11T12:07:13.995Z,2.60
2023-04-11T12:08:13.970Z,4.40
2023-04-11T12:09:13.970Z,5.30
2023-04-11T12:10:13.991Z,4.20
2023-04-11T12:11:13.954Z,4.40
2023-04-11T12:12:13.936Z,3.80
2023-04-11T12:13:13.945Z,2.80
2023-04-11T12:14:13.938Z,4.50
2023-04-11T12:15:13.960Z,3.30
2023-04-11T12:16:14.000Z,3.70
2023-04-11T12:17:13.898Z,2.60
2023-04-11T12:18:13.932Z,5.70
2023-04-11T12:19:13.881Z,5.10
2023-04-11T12:20:13.899Z,3.80
2023-04-11T12:21:13.864Z,3.90
2023-04-11T12:22:13.863Z,4.10
2023-04-11T12:23:13.852Z,5.20
2023-04-11T12:24:13.840Z,6.20
2023-04-11T12:25:13.861Z,3.60
2023-04-11T12:26:13.850Z,4.60
2023-04-11T12:27:13.821Z,2.20
2023-04-11T12:28:13.885Z,4.40
2023-04-11T12:29:13.794Z,3.30
2023-04-11T12:30:14.938Z,4.60
2023-04-11T12:31:13.852Z,5.70
2023-04-11T12:32:13.781Z,2.60
2023-04-11T12:33:13.776Z,4.90
2023-04-11T12:34:13.774Z,6.80
2023-04-11T12:35:13.790Z,5.70
2023-04-11T12:36:13.747Z,6.30
2023-04-11T12:37:13.742Z,3.70
2023-04-11T12:38:16.626Z,4.30
2023-04-11T12:39:13.721Z,4.30
2023-04-11T12:40:13.793Z,5.20
2023-04-11T12:41:30.277Z,5.30
2023-04-11T12:42:18.616Z,2.80
2023-04-11T12:43:14.702Z,5.30
2023-04-11T12:44:13.687Z,5.00
2023-04-11T12:45:13.714Z,4.50
2023-04-11T12:46:13.684Z,4.30
2023-04-11T12:47:13.686Z,4.40
2023-04-11T12:48:13.663Z,4.60
2023-04-11T12:49:13.652Z,2.90
2023-04-11T12:50:13.676Z,3.40
2023-04-11T12:51:13.628Z,3.60
2023-04-11T12:52:13.680Z,3.50
2023-04-11T12:53:13.616Z,8.10
2023-04-11T12:54:13.624Z,4.00
2023-04-11T12:55:13.760Z,4.90
2023-04-11T12:56:13.597Z,4.40
2023-04-11T12:57:13.584Z,4.70
2023-04-11T12:58:13.589Z,5.70
2023-04-11T12:59:13.573Z,5.20
2023-04-11T13:00:13.679Z,4.40
2023-04-11T13:01:13.561Z,4.70
2023-04-11T13:02:13.668Z,5.10
2023-04-11T13:03:13.752Z,3.40
2023-04-11T13:04:13.679Z,3.50
2023-04-11T13:05:15.068Z,3.00
2023-04-11T13:06:13.528Z,6.10
2023-04-11T13:07:13.511Z,4.60
2023-04-11T13:08:13.503Z,6.90
2023-04-11T13:09:13.516Z,5.60
2023-04-11T13:10:13.696Z,5.40
2023-04-11T13:11:13.504Z,6.90
2023-04-11T13:12:13.473Z,3.10
2023-04-11T13:13:18.634Z,6.30
2023-04-11T13:14:15.462Z,3.70
2023-04-11T13:15:13.489Z,2.60
2023-04-11T13:16:13.444Z,3.50
2023-04-11T13:17:13.438Z,4.00
2023-04-11T13:18:13.572Z,4.30
2023-04-11T13:19:13.415Z,3.50